Flight Track Log - Related Links

Times and Time Zones

All times are in EDT time to prevent confusion due to time zone crossing. See the CES5545 flight status page for this flight to view local times or setup timezone preferences in your user account.

Time Position Orientation Groundspeed Altitude Reporting Facility
EDT Latitude Longitude Course Direction KTS MPH feet Rate Location/Type
Fri 04:39:06 AM 31.1778 121.3329 178° South 160 184 1,200  Level FlightAware (ZSSS / SHA)
Fri 04:39:26 AM 31.1645 121.3336 176° South 155 178 2,100 2,308 Climbing FlightAware (ZSSS / SHA)
Fri 04:39:45 AM 31.1503 121.3345 175° South 163 188 2,700 1,886 Climbing FlightAware (ZSSS / SHA)
Fri 04:40:01 AM 31.1370 121.3356 176° South 166 191 3,200 1,548 Climbing FlightAware (ZSSS / SHA)
Fri 04:40:16 AM 31.1256 121.3364 177° South 176 203 3,500 1,000 Climbing FlightAware (ZSSS / SHA)
Fri 04:40:31 AM 31.1122 121.3371 177° South 201 231 3,700 800 Climbing FlightAware (ZSSS / SHA)
Fri 04:40:46 AM 31.0975 121.3378 177° South 221 254 3,900 800 Climbing FlightAware (ZSSS / SHA)
Fri 04:41:01 AM 31.0808 121.3381 184° South 249 287 4,100 1,200 Climbing FlightAware (ZSSS / SHA)
Fri 04:41:16 AM 31.0632 121.3318 211° Southwest 271 312 4,500 1,600 Climbing FlightAware (ZSSS / SHA)
Fri 04:41:31 AM 31.0514 121.3197 232° Southwest 275 316 4,900 938 Climbing FlightAware (ZSSS / SHA)
Fri 04:41:48 AM 31.0431 121.2942 264° West 266 306 5,000 600 Climbing FlightAware (ZSSL)
Fri 04:42:11 AM 31.0471 121.2608 281° West 264 304 5,300 1,692 Climbing FlightAware (ZSSS / SHA)
Fri 04:42:27 AM 31.0507 121.2382 281° West 268 308 6,100 3,500 Climbing FlightAware (ZSSS / SHA)
Fri 04:42:47 AM 31.0550 121.2105 281° West 265 305 7,400 3,366 Climbing FlightAware (ZSSL)
Fri 04:43:08 AM 31.0592 121.1833 281° West 269 310 8,400 2,526 Climbing FlightAware (ZSSL)
Fri 04:43:25 AM 31.0649 121.1566 294° West 280 322 9,000 1,742 Climbing FlightAware (ZSSS / SHA)
Fri 04:44:41 AM 31.1630 121.1207 358° North 349 402 11,100 1,415 Climbing FlightAware (ZSSS / SHA)
Fri 04:45:11 AM 31.2159 121.1175 359° North 381 438 11,500 575 Climbing FlightAware (ZSSS / SHA)
Fri 04:45:54 AM 31.2883 121.1171 360° North 388 447 11,800 300 Climbing FlightAware (ESTA / AGH)
Fri 04:46:11 AM 31.3229 121.1170 North 390 449 11,800 346 Level FlightAware (ZSSS / SHA)
Fri 04:46:46 AM 31.3872 121.1168 North 394 453 12,100 1,467 Climbing FlightAware (ZSSS / SHA)
Fri 04:47:41 AM 31.4861 121.0971 North 395 455 14,000 2,055 Climbing FlightAware (ZSSS / SHA)
Fri 04:47:59 AM 31.5120 121.0836 336° Northwest 398 458 14,600 1,895 Climbing FlightAware (ESTA / AGH)
Fri 04:48:38 AM 31.5766 121.0495 336° Northwest 404 465 15,800 351 Climbing FlightAware (ESTA / AGH)
Fri 05:26:10 AM 35.3597 119.7561 74° East 462 532 28,000 311 Climbing FlightAware
Fri 05:26:33 AM 35.3844 119.8273 54° Northeast 461 531 27,600 -1,143 Descending FlightAware
Fri 05:26:52 AM 35.4231 119.8838 42° Northeast 457 526 27,200 -960 Descending FlightAware
Fri 05:27:23 AM 35.4692 119.9309 39° Northeast 451 519 26,800 -689 Descending FlightAware
Fri 05:27:53 AM 35.5188 119.9812 39° Northeast 452 520 26,500 -700 Descending FlightAware
Fri 05:28:23 AM 35.5673 120.0303 39° Northeast 443 510 26,100 -915 Descending FlightAware
Fri 05:28:52 AM 35.6148 120.0785 39° Northeast 442 509 25,600 -1,017 Descending FlightAware
Fri 05:29:22 AM 35.6615 120.1259 39° Northeast 455 524 25,100 -984 Descending FlightAware
Fri 05:29:53 AM 35.7097 120.1750 39° Northeast 456 525 24,600 -900 Descending FlightAware
Fri 05:30:22 AM 35.7591 120.2254 39° Northeast 450 518 24,200 -915 Descending FlightAware
Fri 05:30:52 AM 35.8077 120.2750 39° Northeast 441 507 23,700 -984 Descending FlightAware
Fri 05:31:23 AM 35.8526 120.3210 39° Northeast 430 495 23,200 -885 Descending FlightAware
Fri 05:31:53 AM 35.8988 120.3683 39° Northeast 425 489 22,800 -720 Descending FlightAware
Fri 05:32:13 AM 35.9319 120.3931 23° Northeast 426 490 22,600 -174 Descending FlightAware
Fri 05:33:02 AM 36.0294 120.4196 10° North 431 496 22,600  Level FlightAware
Fri 05:33:33 AM 36.0893 120.4336 10° North 434 499 22,600  Level FlightAware
Fri 05:34:02 AM 36.1482 120.4472 10° North 434 499 22,600  Level FlightAware
Fri 05:34:32 AM 36.2052 120.4604 10° North 434 499 22,600  Level FlightAware
Fri 05:35:03 AM 36.2670 120.4747 10° North 435 501 22,600  Level FlightAware
Fri 05:35:32 AM 36.3254 120.4882 10° North 424 488 22,600  Level FlightAware
Fri 05:36:18 AM 36.4093 120.5078 10° North 407 468 22,600  Level FlightAware
Fri 05:36:48 AM 36.4656 120.5209 10° North 410 472 22,600  Level FlightAware
Fri 05:37:18 AM 36.5228 120.5342 10° North 412 474 22,600  Level FlightAware
Fri 05:37:48 AM 36.5765 120.5467 10° North 414 476 22,600 -100 Level FlightAware
Fri 05:38:18 AM 36.6350 120.5603 10° North 415 478 22,500 -800 Descending FlightAware
Fri 05:38:48 AM 36.6913 120.5747 16° North 412 474 21,800 -2,160 Descending FlightAware
Fri 05:39:08 AM 36.7263 120.5939 30° Northeast 418 481 20,700 -3,673 Descending FlightAware
Fri 05:39:37 AM 36.7758 120.6329 32° Northeast 434 499 18,800 -3,500 Descending FlightAware
Fri 05:40:08 AM 36.8274 120.6742 32° Northeast 438 504 17,200 -3,443 Descending FlightAware
Fri 05:40:38 AM 36.8776 120.7144 32° Northeast 423 487 15,300 -3,600 Descending FlightAware
Fri 05:41:08 AM 36.9263 120.7533 32° Northeast 403 464 13,600 -2,600 Descending FlightAware
Fri 05:41:38 AM 36.9704 120.7887 32° Northeast 369 425 12,700 -1,600 Descending FlightAware
Fri 05:42:08 AM 37.0139 120.8198 25° Northeast 336 387 12,000 -2,000 Descending FlightAware
Fri 05:42:38 AM 37.0551 120.8447 25° Northeast 328 377 10,700 -2,000 Descending FlightAware
Fri 05:43:08 AM 37.0946 120.8685 25° Northeast 304 350 10,000 -2,136 Descending FlightAware
Fri 05:43:37 AM 37.1316 120.8911 26° Northeast 296 341 8,600 -2,897 Descending FlightAware
Fri 05:46:00 AM 37.2053 121.0216 55° Northeast  Level Estimated
Fri 05:47:00 AM 37.2362 121.0764 55° Northeast  Level Estimated
Fri 05:48:00 AM 37.2671 121.1313 55° Northeast  Level Estimated
Fri 05:49:00 AM 37.2979 121.1862 55° Northeast  Level Estimated
Fri 05:50:00 AM 37.3287 121.2411 55° Northeast  Level Estimated
Fri 05:51:00 AM 37.3595 121.2961 55° Northeast  Level Estimated
Fri 05:52:00 AM 37.3902 121.3512 55° Northeast  Level Estimated
Fri 05:53:00 AM 37.4017 121.3717 55° Northeast  Level Estimated
Fri 05:54:00 AM 37.4017 121.3717 North  Level Estimated
Fri 05:55:00 AM 37.4017 121.3717 North  Level Estimated
Fri 05:56:00 AM 37.4017 121.3717 North  Level Estimated
Fri 05:57:00 AM 37.4017 121.3717 North  Level Estimated
Fri 05:58:00 AM 37.4017 121.3717 North  Level Estimated
Fri 05:59:00 AM 37.4017 121.3717 North  Level Estimated
Fri 06:00:00 AM 37.4017 121.3717 North  Level Estimated
Fri 06:01:00 AM 37.4017 121.3717 North  Level Estimated
Fri 06:02:00 AM 37.4017 121.3717 North  Level Estimated
Fri 06:03:00 AM 37.4017 121.3717 North  Level Estimated
Fri 06:04:00 AM 37.4017 121.3717 North  Level Estimated
Fri 06:05:00 AM 37.4017 121.3717 North  Level Estimated
Fri 06:06:00 AM 37.4017 121.3717 North  Level Estimated
Fri 06:07:00 AM 37.4017 121.3717 North  Level Estimated
Fri 06:08:00 AM 37.4017 121.3717 North  Level Estimated
Fri 06:09:00 AM 37.4017 121.3717 North  Level Estimated
Fri 06:10:00 AM 37.4017 121.3717 North  Level Estimated
Fri 06:11:00 AM 37.4017 121.3717 North  Level Estimated
Fri 06:12:00 AM 37.4017 121.3717 North  Level Estimated
Fri 06:13:00 AM 37.4017 121.3717 North  Level Estimated
Fri 06:14:00 AM 37.4017 121.3717 North  Level Estimated
Fri 06:15:00 AM 37.4017 121.3717 North  Level Estimated
Fri 06:16:00 AM 37.4017 121.3717 North  Level Estimated
Fri 06:17:00 AM 37.4017 121.3717 North  Level Estimated
Fri 06:18:00 AM 37.4017 121.3717 North  Level Estimated
Fri 06:19:00 AM 37.4017 121.3717 North  Level Estimated
Fri 06:20:00 AM 37.4017 121.3717 North  Level Estimated
Fri 06:21:00 AM 37.4017 121.3717 North  Level Estimated
Fri 06:22:00 AM 37.4017 121.3717 North  Level Estimated
Fri 06:23:00 AM 37.4017 121.3717 North  Level Estimated
Fri 06:24:00 AM 37.4017 121.3717 North  Level Estimated
Fri 06:25:00 AM 37.4017 121.3717 North  Level Estimated
Fri 06:26:00 AM 37.4017 121.3717 North  Level Estimated
Fri 06:27:00 AM 37.4017 121.3717 North  Level Estimated
Fri 06:28:00 AM 37.4017 121.3717 North  Level Estimated
Fri 06:29:00 AM 37.4017 121.3717 North  Level Estimated
Fri 06:30:00 AM 37.4017 121.3717 North  Level Estimated
Fri 06:31:00 AM 37.4017 121.3717 North  Level Estimated
Fri 06:32:00 AM 37.4017 121.3717 North  Level Estimated
Fri 06:33:00 AM 37.4017 121.3717 North  Level Estimated
Fri 06:34:00 AM 37.4017 121.3717 North  Level Estimated
Fri 06:35:00 AM 37.4017 121.3717 North  Level Estimated
Fri 06:36:00 AM 37.4017 121.3717 North  Level Estimated
Fri 06:37:00 AM 37.4017 121.3717 North  Level Estimated

Login

Don't have an account? Register now (free) for customized features, flight alerts, and more!